Time;durP1;ratioP1;P1;durP2;ratioP2;P2;SDS_P1;SDS_P2;PMS_P1;PMS_P2;Temp;Humidity;BMP_temperature;BMP_pressure;BME280_temperature;BME280_humidity;BME280_pressure;Samples;Min_cycle;Max_cycle;Signal;HPM_P1;HPM_P2
2021/11/23 00:02:25;;;;;;;6.28;5.10;;;;;;;;;;5131316;27;20282;-81
2021/11/23 00:04:52;;;;;;;8.65;7.05;;;;;;;;;;5133785;27;20226;-81
2021/11/23 00:07:19;;;;;;;6.60;5.47;;;;;;;;;;5132606;27;20266;-81
2021/11/23 00:09:47;;;;;;;8.68;6.68;;;;;;;;;;5133478;27;20304;-81
2021/11/23 00:12:15;;;;;;;7.90;6.53;;;;;;;;;;5131625;27;20238;-81
2021/11/23 00:14:43;;;;;;;7.85;6.10;;;;;;;;;;5132634;27;20293;-81
2021/11/23 00:17:10;;;;;;;10.30;6.65;;;;;;;;;;5131178;27;20222;-81
2021/11/23 00:19:38;;;;;;;9.27;7.30;;;;;;;;;;5133730;27;20197;-81
2021/11/23 00:22:05;;;;;;;8.40;6.95;;;;;;;;;;5132012;27;20226;-81
2021/11/23 00:24:32;;;;;;;7.70;6.90;;;;;;;;;;5132157;27;20284;-81
2021/11/23 00:26:59;;;;;;;9.23;5.97;;;;;;;;;;5132407;27;20250;-81
2021/11/23 00:29:26;;;;;;;7.28;5.28;;;;;;;;;;5132377;27;20257;-81
2021/11/23 00:31:55;;;;;;;6.50;6.00;;;;;;;;;;5132422;27;20219;-81
2021/11/23 00:34:22;;;;;;;8.55;5.55;;;;;;;;;;5132957;27;20193;-81
2021/11/23 00:36:49;;;;;;;6.75;5.85;;;;;;;;;;5131948;27;20297;-81
2021/11/23 00:39:16;;;;;;;6.78;5.90;;;;;;;;;;5131788;27;20232;-81
2021/11/23 00:41:47;;;;;;;8.93;6.07;;;;;;;;;;5131822;27;20676;-82
2021/11/23 00:44:14;;;;;;;7.25;6.53;;;;;;;;;;5132598;27;20543;-81
2021/11/23 00:46:42;;;;;;;6.82;5.22;;;;;;;;;;5114408;27;20231;-81
2021/11/23 00:49:11;;;;;;;8.52;5.90;;;;;;;;;;5132031;27;20584;-81
2021/11/23 00:51:38;;;;;;;8.82;6.72;;;;;;;;;;5130863;27;20257;-81
2021/11/23 00:54:05;;;;;;;7.75;6.40;;;2.00;99.90;;;;;;5132307;27;20237;-82
2021/11/23 00:56:32;;;;;;;6.90;5.70;;;;;;;;;;5124719;27;20275;-82
2021/11/23 00:59:00;;;;;;;9.10;6.20;;;2.00;99.90;;;;;;5132320;27;20623;-82
2021/11/23 01:01:27;;;;;;;7.63;5.75;;;;;;;;;;5130372;27;20198;-82
2021/11/23 01:03:54;;;;;;;7.68;6.80;;;;;;;;;;5132054;27;20276;-81
2021/11/23 01:06:23;;;;;;;8.73;6.90;;;2.00;99.90;;;;;;5131359;27;20221;-81
2021/11/23 01:08:50;;;;;;;7.38;6.15;;;;;;;;;;5131574;27;20309;-82
2021/11/23 01:11:19;;;;;;;8.57;6.28;;;2.00;99.40;;;;;;5131807;27;20626;-81
2021/11/23 01:13:47;;;;;;;9.02;6.60;;;2.30;99.90;;;;;;5130755;27;20277;-82
2021/11/23 01:16:16;;;;;;;7.32;6.28;;;;;;;;;;5130695;27;20288;-81
2021/11/23 01:18:43;;;;;;;11.27;6.50;;;;;;;;;;5131128;27;20562;-82
2021/11/23 01:21:12;;;;;;;9.75;6.63;;;1.90;99.90;;;;;;5131625;27;20297;-81
2021/11/23 01:23:41;;;;;;;9.70;6.75;;;1.60;99.70;;;;;;5131842;27;20582;-82
2021/11/23 01:26:08;;;;;;;10.13;6.63;;;1.60;99.90;;;;;;5131668;27;20224;-82
2021/11/23 01:28:36;;;;;;;15.93;7.72;;;0.00;99.30;;;;;;5131438;27;20252;-82
2021/11/23 01:31:03;;;;;;;9.73;6.65;;;;;;;;;;5130907;27;20221;-82
2021/11/23 01:33:30;;;;;;;7.50;5.13;;;;;;;;;;5130656;27;20286;-82
2021/11/23 01:35:57;;;;;;;9.07;6.97;;;;;;;;;;5130768;27;20236;-82
2021/11/23 01:38:24;;;;;;;8.25;6.50;;;1.60;99.90;;;;;;5130989;27;20189;-82
2021/11/23 01:40:52;;;;;;;6.90;6.10;;;1.40;99.90;;;;;;5130587;27;20272;-82
2021/11/23 01:43:20;;;;;;;8.48;6.80;;;;;;;;;;5131000;27;20235;-81
2021/11/23 01:45:46;;;;;;;8.10;6.68;;;1.40;99.90;;;;;;5131365;27;20262;-81
2021/11/23 01:48:13;;;;;;;8.43;6.53;;;0.90;99.90;;;;;;5131051;27;20215;-81
2021/11/23 01:50:40;;;;;;;8.15;6.20;;;;;;;;;;5123576;27;20233;-81
2021/11/23 01:53:08;;;;;;;12.70;6.95;;;;;;;;;;5131244;27;20293;-81
2021/11/23 01:55:37;;;;;;;8.23;6.55;;;1.50;99.90;;;;;;5130828;27;20707;-82
2021/11/23 01:58:08;;;;;;;7.80;6.13;;;1.00;99.90;;;;;;5131286;27;20189;-81
2021/11/23 02:00:35;;;;;;;9.52;7.70;;;0.90;99.90;;;;;;5128336;27;20260;-81
2021/11/23 02:03:03;;;;;;;7.25;6.43;;;0.90;99.90;;;;;;5130526;27;20186;-81
2021/11/23 02:05:31;;;;;;;9.88;6.68;;;;;;;;;;5131016;27;20221;-81
2021/11/23 02:07:58;;;;;;;6.55;5.50;;;;;;;;;;5130665;27;20601;-81
2021/11/23 02:10:25;;;;;;;6.25;5.57;;;;;;;;;;5128796;27;20278;-81
2021/11/23 02:12:53;;;;;;;9.70;6.70;;;0.60;99.90;;;;;;5130280;27;20205;-81
2021/11/23 02:15:22;;;;;;;7.03;5.97;;;;;;;;;;5129762;27;20225;-81
2021/11/23 02:17:49;;;;;;;8.00;5.70;;;;;;;;;;5130347;27;20234;-81
2021/11/23 02:20:19;;;;;;;8.70;6.90;;;0.50;99.90;;;;;;5129427;27;20627;-81
2021/11/23 02:22:47;;;;;;;9.45;7.15;;;0.40;99.90;;;;;;5130692;27;20231;-81
2021/11/23 02:25:15;;;;;;;8.55;7.60;;;0.60;99.90;;;;;;5130217;27;20229;-81
2021/11/23 02:27:42;;;;;;;8.52;7.38;;;;;;;;;;5130331;27;20243;-81
2021/11/23 02:30:12;;;;;;;6.93;6.22;;;0.60;99.90;;;;;;5129969;27;20754;-81
2021/11/23 02:32:40;;;;;;;8.40;5.40;;;;;;;;;;5130917;27;20250;-81
2021/11/23 02:35:07;;;;;;;8.93;6.07;;;;;;;;;;5129978;27;20281;-82
2021/11/23 02:37:42;;;;;;;9.70;6.68;;;0.50;99.90;;;;;;5130873;27;20893;-81
2021/11/23 02:40:10;;;;;;;9.10;6.25;;;;;;;;;;5128504;27;20701;-81
2021/11/23 02:42:37;;;;;;;6.88;6.28;;;;;;;;;;5130380;27;20200;-81
2021/11/23 02:45:04;;;;;;;9.80;7.38;;;;;;;;;;5122523;27;20213;-82
2021/11/23 02:47:33;;;;;;;11.18;7.30;;;;;;;;;;5129687;27;20202;-81
2021/11/23 02:50:01;;;;;;;9.82;7.93;;;;;;;;;;5129568;28;20213;-81
2021/11/23 02:52:28;;;;;;;7.45;6.63;;;;;;;;;;5128602;28;20220;-82
2021/11/23 02:54:57;;;;;;;9.27;6.97;;;;;;;;;;5129805;28;20281;-81
2021/11/23 02:57:27;;;;;;;7.82;5.72;;;;;;;;;;5129789;28;20635;-81
2021/11/23 02:59:54;;;;;;;9.82;7.38;;;;;;;;;;5130743;28;20280;-81
2021/11/23 03:02:22;;;;;;;9.82;6.90;;;;;;;;;;5129288;28;20225;-81
2021/11/23 03:04:52;;;;;;;7.60;6.15;;;;;;;;;;5130440;28;20239;-81
2021/11/23 03:07:19;;;;;;;9.95;7.25;;;;;;;;;;5129958;28;20702;-81
2021/11/23 03:09:47;;;;;;;8.00;7.00;;;;;;;;;;5129903;28;20245;-81
2021/11/23 03:12:16;;;;;;;11.40;8.27;;;;;;;;;;5128103;27;20289;-81
2021/11/23 03:14:44;;;;;;;7.45;6.68;;;;;;;;;;5151108;27;20228;-81
2021/11/23 03:17:11;;;;;;;8.20;6.72;;;;;;;;;;5110119;28;20273;-82
2021/11/23 03:19:38;;;;;;;6.97;5.95;;;;;;;;;;5115579;28;20277;-81
2021/11/23 03:22:05;;;;;;;10.63;7.65;;;;;;;;;;5129804;28;20237;-82
2021/11/23 03:24:32;;;;;;;10.70;6.88;;;;;;;;;;5130229;28;20659;-81
2021/11/23 03:26:59;;;;;;;8.27;7.03;;;;;;;;;;5129856;28;20686;-81
2021/11/23 03:29:28;;;;;;;7.65;6.38;;;;;;;;;;5130047;28;20242;-81
2021/11/23 03:31:55;;;;;;;11.85;7.13;;;;;;;;;;5130134;28;20194;-81
2021/11/23 03:34:23;;;;;;;11.70;7.15;;;0.40;99.90;;;;;;5130036;28;20194;-81
2021/11/23 03:36:50;;;;;;;9.43;7.18;;;0.20;99.90;;;;;;5132611;27;20194;-81
2021/11/23 03:39:18;;;;;;;7.35;6.50;;;;;;;;;;5132421;27;20634;-82
2021/11/23 03:41:45;;;;;;;9.45;6.70;;;0.00;99.90;;;;;;5127911;27;20217;-81
2021/11/23 03:44:12;;;;;;;9.38;7.05;;;;;;;;;;5134744;27;20198;-82
2021/11/23 03:46:41;;;;;;;9.07;6.40;;;;;;;;;;5133315;27;20247;-81
2021/11/23 03:49:08;;;;;;;10.57;7.13;;;;;;;;;;5134571;27;20355;-81
2021/11/23 03:51:35;;;;;;;8.85;6.07;;;;;;;;;;5133232;27;20197;-82
2021/11/23 03:54:03;;;;;;;9.27;7.20;;;;;;;;;;5134167;27;20208;-82
2021/11/23 03:56:30;;;;;;;13.35;8.80;;;;;;;;;;5133553;27;20251;-82
2021/11/23 03:58:57;;;;;;;8.43;6.82;;;;;;;;;;5134222;27;20647;-81
2021/11/23 04:01:24;;;;;;;9.15;6.45;;;;;;;;;;5132402;27;20233;-81
2021/11/23 04:03:53;;;;;;;12.40;6.93;;;;;;;;;;5134290;27;20198;-82
2021/11/23 04:06:20;;;;;;;10.32;7.13;;;;;;;;;;5133322;27;20268;-81
2021/11/23 04:08:47;;;;;;;8.45;6.60;;;;;;;;;;5133563;27;20612;-81
2021/11/23 04:11:14;;;;;;;9.32;6.57;;;;;;;;;;5132899;27;20348;-81
2021/11/23 04:13:43;;;;;;;8.20;7.13;;;;;;;;;;5133313;27;20685;-81
2021/11/23 04:16:11;;;;;;;8.98;6.68;;;0.50;99.90;;;;;;5132895;27;20193;-81
2021/11/23 04:18:38;;;;;;;12.13;7.90;;;;;;;;;;5134060;27;20266;-81
2021/11/23 04:21:06;;;;;;;9.07;6.40;;;;;;;;;;5132325;27;20564;-82
2021/11/23 04:23:34;;;;;;;8.60;6.50;;;;;;;;;;5133808;27;20228;-82
2021/11/23 04:26:01;;;;;;;8.63;6.45;;;;;;;;;;5132737;27;20233;-82
2021/11/23 04:28:28;;;;;;;7.32;6.53;;;;;;;;;;5132993;27;20212;-81
2021/11/23 04:30:56;;;;;;;10.25;7.32;;;;;;;;;;5132227;27;20328;-82
2021/11/23 04:33:23;;;;;;;7.25;6.55;;;;;;;;;;5132443;27;20229;-81
2021/11/23 04:35:50;;;;;;;8.15;5.97;;;;;;;;;;5127000;27;20690;-82
2021/11/23 04:38:18;;;;;;;9.55;8.10;;;-0.50;99.90;;;;;;5132710;27;20222;-82
2021/11/23 04:40:45;;;;;;;11.25;8.88;;;;;;;;;;5132067;27;20221;-81
2021/11/23 04:43:13;;;;;;;11.73;9.75;;;;;;;;;;5132518;27;20197;-82
2021/11/23 04:45:40;;;;;;;12.13;8.90;;;-0.70;99.90;;;;;;5133039;27;20672;-82
2021/11/23 04:48:08;;;;;;;15.43;11.32;;;;;;;;;;5133015;27;20213;-82
2021/11/23 04:50:35;;;;;;;12.73;9.05;;;;;;;;;;5132105;27;20249;-82
2021/11/23 04:53:03;;;;;;;10.48;8.60;;;;;;;;;;5132981;27;20193;-82
2021/11/23 04:55:32;;;;;;;11.88;8.10;;;;;;;;;;5132123;27;20246;-82
2021/11/23 04:57:59;;;;;;;12.02;9.35;;;;;;;;;;5132453;27;20699;-82
2021/11/23 05:00:26;;;;;;;13.52;9.50;;;;;;;;;;5131892;27;20637;-81
2021/11/23 05:02:53;;;;;;;10.32;7.53;;;;;;;;;;5132657;27;20231;-82
2021/11/23 05:05:21;;;;;;;10.88;8.70;;;;;;;;;;5132797;27;20541;-82
2021/11/23 05:07:48;;;;;;;11.25;7.53;;;;;;;;;;5131656;27;20222;-82
2021/11/23 05:10:16;;;;;;;11.23;8.32;;;-0.40;99.90;;;;;;5131922;27;20268;-82
2021/11/23 05:12:44;;;;;;;8.95;6.65;;;-0.60;99.90;;;;;;5132065;27;20277;-82
2021/11/23 05:15:12;;;;;;;9.73;7.20;;;-0.50;99.90;;;;;;5131460;27;20193;-82
2021/11/23 05:17:39;;;;;;;9.80;6.93;;;-0.60;99.90;;;;;;5132807;27;20202;-82
2021/11/23 05:20:08;;;;;;;12.15;8.23;;;-0.80;99.90;;;;;;5132092;27;20285;-82
2021/11/23 05:22:35;;;;;;;11.43;7.88;;;;;;;;;;5131649;27;20292;-82
2021/11/23 05:25:02;;;;;;;12.23;8.30;;;;;;;;;;5132607;27;20217;-83
2021/11/23 05:27:30;;;;;;;10.68;7.00;;;;;;;;;;5132178;27;20237;-82
2021/11/23 05:30:00;;;;;;;11.27;8.02;;;-0.80;99.90;;;;;;5130185;27;20553;-82
2021/11/23 05:32:27;;;;;;;10.77;8.00;;;;;;;;;;5114214;27;20329;-83
2021/11/23 05:34:55;;;;;;;10.93;8.13;;;;;;;;;;5131371;27;20189;-82
2021/11/23 05:37:22;;;;;;;12.68;7.88;;;;;;;;;;5131522;27;20599;-83
2021/11/23 05:39:49;;;;;;;11.15;8.10;;;;;;;;;;5131202;27;20766;-82
2021/11/23 05:42:16;;;;;;;13.88;9.10;;;;;;;;;;5130705;27;20718;-82
2021/11/23 05:44:43;;;;;;;15.75;9.10;;;;;;;;;;5131119;27;20225;-83
2021/11/23 05:47:12;;;;;;;12.48;8.55;;;;;;;;;;5131819;27;20738;-82
2021/11/23 05:49:39;;;;;;;12.57;8.48;;;;;;;;;;5130943;27;20232;-82
2021/11/23 05:52:07;;;;;;;12.63;8.63;;;;;;;;;;5130874;27;20758;-82
2021/11/23 05:54:34;;;;;;;10.68;8.02;;;;;;;;;;5131399;27;20288;-83
2021/11/23 05:57:01;;;;;;;11.13;7.93;;;;;;;;;;5131844;27;20236;-83
2021/11/23 05:59:28;;;;;;;9.25;7.45;;;;;;;;;;5130345;27;20280;-82
2021/11/23 06:01:55;;;;;;;12.30;8.73;;;;;;;;;;5110726;28;20237;-82
2021/11/23 06:04:24;;;;;;;10.05;7.80;;;;;;;;;;5124671;27;20193;-82
2021/11/23 06:06:51;;;;;;;9.60;6.72;;;;;;;;;;5130827;27;20289;-83
2021/11/23 06:09:18;;;;;;;11.60;8.18;;;;;;;;;;5131383;27;20285;-83
2021/11/23 06:11:46;;;;;;;9.13;7.80;;;;;;;;;;5130762;27;20304;-83
2021/11/23 06:14:13;;;;;;;10.77;7.70;;;;;;;;;;5130513;27;20332;-83
2021/11/23 06:16:44;;;;;;;11.20;9.07;;;;;;;;;;5129329;27;20201;-82
2021/11/23 06:19:11;;;;;;;13.20;9.15;;;;;;;;;;5130908;27;20666;-83
2021/11/23 06:21:41;;;;;;;10.45;9.15;;;-0.80;99.90;;;;;;5129851;27;20217;-83
2021/11/23 06:24:09;;;;;;;11.15;8.93;;;;;;;;;;5130810;27;20194;-83
2021/11/23 06:26:36;;;;;;;14.45;10.80;;;;;;;;;;5141969;27;20713;-83
2021/11/23 06:29:03;;;;;;;14.35;10.35;;;;;;;;;;5134507;27;20219;-82
2021/11/23 06:31:31;;;;;;;13.90;9.80;;;;;;;;;;5128354;27;20553;-83
2021/11/23 06:33:59;;;;;;;12.77;10.48;;;;;;;;;;5135327;27;20625;-83
2021/11/23 06:36:26;;;;;;;16.13;12.20;;;;;;;;;;5129733;27;20598;-83
2021/11/23 06:38:55;;;;;;;13.88;10.75;;;;;;;;;;5128187;27;20190;-83
2021/11/23 06:41:22;;;;;;;13.57;10.55;;;;;;;;;;5125868;27;20210;-83
2021/11/23 06:43:49;;;;;;;13.25;8.02;;;;;;;;;;5127403;27;20189;-83
2021/11/23 06:46:16;;;;;;;9.57;8.55;;;;;;;;;;5125592;27;20284;-83
2021/11/23 06:48:43;;;;;;;12.07;9.13;;;;;;;;;;5125730;27;20301;-83
2021/11/23 06:51:11;;;;;;;11.70;8.93;;;;;;;;;;5130454;27;20201;-84
2021/11/23 06:53:38;;;;;;;14.55;11.32;;;;;;;;;;5130902;28;20255;-83
2021/11/23 06:56:07;;;;;;;17.67;10.65;;;;;;;;;;5130591;28;20274;-84
2021/11/23 06:58:34;;;;;;;15.80;10.48;;;;;;;;;;5130726;28;20240;-83
2021/11/23 07:01:01;;;;;;;16.88;8.95;;;;;;;;;;5129217;28;20209;-84
2021/11/23 07:03:29;;;;;;;14.77;8.82;;;;;;;;;;5130931;28;20212;-84
2021/11/23 07:05:56;;;;;;;15.18;10.15;;;;;;;;;;5130277;28;20201;-85
2021/11/23 07:08:23;;;;;;;17.17;10.38;;;;;;;;;;5130870;28;20202;-84
2021/11/23 07:10:50;;;;;;;14.70;9.68;;;;;;;;;;5125008;27;20202;-84
2021/11/23 07:13:19;;;;;;;12.55;9.20;;;;;;;;;;5133195;27;20294;-83
2021/11/23 07:15:46;;;;;;;14.10;10.50;;;;;;;;;;5132739;27;20229;-84
2021/11/23 07:18:14;;;;;;;14.25;10.13;;;;;;;;;;5133517;27;20198;-84
2021/11/23 07:20:41;;;;;;;9.60;8.02;;;;;;;;;;5132523;27;20910;-84
2021/11/23 07:23:08;;;;;;;9.23;8.23;;;;;;;;;;5134357;27;20743;-83
2021/11/23 07:25:36;;;;;;;15.77;8.45;;;;;;;;;;5133654;27;20250;-84
2021/11/23 07:28:03;;;;;;;12.43;8.88;;;;;;;;;;5133768;27;20190;-84
2021/11/23 07:30:32;;;;;;;13.15;9.68;;;;;;;;;;5133351;27;20201;-84
2021/11/23 07:32:59;;;;;;;10.63;9.07;;;;;;;;;;5133793;27;20190;-84
2021/11/23 07:35:26;;;;;;;13.90;10.55;;;;;;;;;;5134264;27;20232;-85
2021/11/23 07:37:53;;;;;;;15.63;10.77;;;;;;;;;;5133008;27;20289;-84
2021/11/23 07:40:20;;;;;;;15.77;10.20;;;;;;;;;;5133584;27;20201;-83
2021/11/23 07:42:48;;;;;;;14.23;11.15;;;;;;;;;;5134378;27;20262;-86
2021/11/23 07:45:15;;;;;;;15.50;11.40;;;;;;;;;;5129277;27;20225;-86
2021/11/23 07:47:44;;;;;;;13.52;8.50;;;;;;;;;;5132382;27;20252;-86
2021/11/23 07:50:11;;;;;;;14.30;9.52;;;;;;;;;;5125062;27;20270;-86
2021/11/23 07:52:38;;;;;;;11.95;9.45;;;;;;;;;;5150249;27;20204;-87
2021/11/23 07:55:06;;;;;;;16.75;11.20;;;;;;;;;;5121651;27;20201;-87
2021/11/23 07:57:34;;;;;;;12.55;10.45;;;;;;;;;;5135568;27;20194;-87
2021/11/23 08:00:03;;;;;;;13.23;9.88;;;;;;;;;;5143621;27;20238;-87
2021/11/23 08:02:30;;;;;;;15.23;10.60;;;;;;;;;;5133077;27;20306;-87
2021/11/23 08:04:59;;;;;;;14.80;9.02;;;;;;;;;;5147830;27;20242;-87
2021/11/23 08:07:28;;;;;;;15.18;10.02;;;;;;;;;;5120383;27;20284;-87
2021/11/23 08:09:55;;;;;;;15.52;12.18;;;;;;;;;;5133030;27;20198;-87
2021/11/23 08:12:23;;;;;;;18.45;10.85;;;;;;;;;;5140090;27;20201;-87
2021/11/23 08:14:50;;;;;;;13.50;10.02;;;;;;;;;;5135335;27;20198;-86
2021/11/23 08:17:17;;;;;;;13.75;10.32;;;;;;;;;;5138988;27;20205;-87
2021/11/23 08:19:44;;;;;;;13.65;11.50;;;;;;;;;;5136650;27;20199;-87
2021/11/23 08:22:13;;;;;;;13.68;10.52;;;;;;;;;;5146305;27;20221;-87
2021/11/23 08:24:40;;;;;;;17.23;11.88;;;0.20;99.90;;;;;;5134450;27;20248;-87
2021/11/23 08:27:07;;;;;;;12.63;10.88;;;1.10;99.90;;;;;;5133594;27;20198;-87
2021/11/23 08:29:34;;;;;;;13.27;9.75;;;;;;;;;;5140052;27;20234;-87
2021/11/23 08:32:02;;;;;;;16.00;10.45;;;;;;;;;;5132534;27;20255;-87
2021/11/23 08:34:29;;;;;;;13.60;9.23;;;;;;;;;;5133050;27;20734;-87
2021/11/23 08:36:56;;;;;;;16.15;10.30;;;;;;;;;;5138353;27;20199;-87
2021/11/23 08:39:25;;;;;;;16.52;10.27;;;;;;;;;;5133674;27;20243;-86
2021/11/23 08:41:52;;;;;;;14.93;9.70;;;;;;;;;;5132251;27;20634;-86
2021/11/23 08:44:19;;;;;;;16.48;10.73;;;2.30;99.90;;;;;;5132165;27;20655;-86
2021/11/23 08:46:47;;;;;;;11.60;9.43;;;;;;;;;;5130889;27;20230;-86
2021/11/23 08:49:14;;;;;;;14.25;10.40;;;0.40;99.90;;;;;;5127085;27;20218;-85
2021/11/23 08:51:42;;;;;;;12.88;10.27;;;;;;;;;;5131364;27;20653;-86
2021/11/23 08:54:09;;;;;;;14.27;10.13;;;1.10;99.90;;;;;;5132336;27;20209;-85
2021/11/23 08:56:38;;;;;;;13.63;9.63;;;1.20;99.90;;;;;;5132135;27;20596;-85
2021/11/23 08:59:09;;;;;;;12.80;9.70;;;;;;;;;;5131878;27;20675;-85
2021/11/23 09:01:36;;;;;;;15.20;10.20;;;;;;;;;;5131409;27;20226;-85
2021/11/23 09:04:04;;;;;;;14.50;9.63;;;;;;;;;;5132835;27;20197;-86
2021/11/23 09:06:33;;;;;;;13.82;9.70;;;0.80;99.90;;;;;;5132209;27;20205;-84
2021/11/23 09:09:06;;;;;;;16.48;11.05;;;;;;;;;;5132035;27;20845;-85
2021/11/23 09:11:34;;;;;;;15.95;10.25;;;;;;;;;;5131358;27;20202;-84
2021/11/23 09:14:02;;;;;;;12.63;9.95;;;;;;;;;;5132055;27;20285;-85
2021/11/23 09:16:33;;;;;;;14.68;9.57;;;1.40;99.90;;;;;;5131144;27;20197;-84
2021/11/23 09:19:00;;;;;;;16.08;11.45;;;;;;;;;;5132242;27;20283;-84
2021/11/23 09:21:30;;;;;;;12.85;9.70;;;;;;;;;;5130912;27;20210;-84
2021/11/23 09:23:57;;;;;;;11.55;9.15;;;1.30;99.90;;;;;;5131848;27;20406;-84
2021/11/23 09:26:25;;;;;;;14.25;10.73;;;;;;;;;;5131301;27;20201;-84
2021/11/23 09:28:52;;;;;;;15.48;8.70;;;1.20;99.90;;;;;;5132094;27;20618;-84
2021/11/23 09:31:20;;;;;;;12.25;9.35;;;1.20;99.90;;;;;;5131099;27;20202;-84
2021/11/23 09:33:47;;;;;;;12.32;9.57;;;1.40;99.90;;;;;;5130700;27;20202;-84
2021/11/23 09:36:15;;;;;;;11.85;9.48;;;;;;;;;;5132151;27;20198;-84
2021/11/23 09:38:42;;;;;;;12.07;8.55;;;1.30;99.90;;;;;;5130945;27;20217;-84
2021/11/23 09:41:10;;;;;;;10.75;9.30;;;;;;;;;;5130639;27;20228;-84
2021/11/23 09:43:38;;;;;;;12.90;9.70;;;1.30;99.90;;;;;;5131959;27;20202;-84
2021/11/23 09:46:07;;;;;;;12.70;9.82;;;;;;;;;;5130958;27;20279;-84
2021/11/23 09:48:36;;;;;;;9.55;8.38;;;;;;;;;;5131474;27;20260;-84
2021/11/23 09:51:06;;;;;;;11.60;9.40;;;;;;;;;;5123721;27;20703;-84
2021/11/23 09:53:33;;;;;;;12.60;9.38;;;;;;;;;;5131240;27;21026;-84
2021/11/23 09:56:00;;;;;;;10.82;9.40;;;1.10;99.90;;;;;;5130713;27;20251;-84
2021/11/23 09:58:28;;;;;;;13.40;9.40;;;1.40;99.90;;;;;;5131758;27;20210;-84
2021/11/23 10:01:04;;;;;;;16.40;10.38;;;1.40;99.90;;;;;;5129738;27;20772;-84
2021/11/23 10:03:32;;;;;;;12.20;9.80;;;1.40;99.90;;;;;;5130762;27;20634;-84
2021/11/23 10:06:09;;;;;;;11.20;9.70;;;1.50;99.90;;;;;;5132564;27;20205;-84
2021/11/23 10:08:37;;;;;;;11.13;8.52;;;1.40;99.90;;;;;;5136016;27;20604;-83
2021/11/23 10:11:05;;;;;;;13.30;10.40;;;1.50;99.90;;;;;;5135230;27;20201;-83
2021/11/23 10:13:46;;;;;;;12.65;9.50;;;1.90;99.90;;;;;;5135954;27;20193;-84
2021/11/23 10:16:14;;;;;;;13.70;9.85;;;2.00;99.90;;;;;;5133860;27;20230;-84
2021/11/23 10:18:41;;;;;;;13.90;10.05;;;;;;;;;;5135987;27;20220;-84
2021/11/23 10:21:12;;;;;;;12.40;9.13;;;2.40;99.90;;;;;;5135164;27;20193;-83
2021/11/23 10:23:41;;;;;;;11.82;7.30;;;2.30;99.90;;;;;;5135587;27;20202;-84
2021/11/23 10:26:13;;;;;;;10.73;7.63;;;2.60;99.90;;;;;;5135429;27;20277;-83
2021/11/23 10:28:43;;;;;;;11.95;7.85;;;2.80;98.60;;;;;;5134028;27;20274;-83
2021/11/23 10:31:10;;;;;;;13.13;6.82;;;;;;;;;;5133804;27;20201;-83
2021/11/23 10:33:38;;;;;;;7.05;5.93;;;;;;;;;;5133911;27;20195;-83
2021/11/23 10:36:09;;;;;;;8.25;6.95;;;2.80;97.20;;;;;;5127869;27;20215;-82
2021/11/23 10:38:41;;;;;;;9.15;6.90;;;2.80;96.30;;;;;;5133093;27;20202;-84
2021/11/23 10:41:09;;;;;;;6.75;6.00;;;2.90;97.50;;;;;;5131388;27;20230;-83
2021/11/23 10:43:38;;;;;;;8.52;6.40;;;;;;;;;;5131556;27;20229;-83
2021/11/23 10:46:06;;;;;;;10.13;6.13;;;;;;;;;;5130091;27;20223;-83
2021/11/23 10:48:33;;;;;;;6.90;5.88;;;;;;;;;;5132277;27;20218;-82
2021/11/23 10:51:04;;;;;;;9.07;7.07;;;3.10;96.90;;;;;;5130824;28;20250;-83
2021/11/23 10:53:31;;;;;;;7.10;6.20;;;;;;;;;;5131228;28;20199;-83
2021/11/23 10:56:08;;;;;;;6.90;5.50;;;3.00;97.50;;;;;;5130002;28;20227;-82
2021/11/23 10:58:36;;;;;;;7.03;6.30;;;;;;;;;;5130981;28;20282;-83
2021/11/23 11:01:06;;;;;;;6.50;5.25;;;3.20;97.10;;;;;;5130640;28;20226;-82
2021/11/23 11:03:34;;;;;;;7.85;5.75;;;3.30;98.20;;;;;;5131832;28;20680;-83
2021/11/23 11:06:03;;;;;;;7.13;5.50;;;3.30;97.10;;;;;;5130994;28;20277;-82
2021/11/23 11:08:35;;;;;;;9.50;7.57;;;3.40;96.10;;;;;;5132260;28;20622;-84
2021/11/23 11:11:02;;;;;;;7.22;6.53;;;;;;;;;;5131985;28;20206;-83
2021/11/23 11:13:31;;;;;;;7.35;5.38;;;3.50;97.10;;;;;;5131831;27;20293;-83
2021/11/23 11:16:00;;;;;;;6.40;5.78;;;3.50;96.80;;;;;;5129610;28;20689;-83
2021/11/23 11:18:27;;;;;;;8.45;6.30;;;3.50;96.60;;;;;;5130279;27;20247;-83
2021/11/23 11:20:59;;;;;;;6.50;5.65;;;3.50;97.30;;;;;;5129681;28;20559;-83
2021/11/23 11:23:28;;;;;;;7.57;5.97;;;3.60;96.90;;;;;;5130358;28;20234;-82
2021/11/23 11:28:50;;;;;;;4.95;4.47;;;3.50;97.40;;;;;;5126778;28;20223;-83
2021/11/23 11:31:39;;;;;;;7.55;6.35;;;3.70;98.10;;;;;;5129761;28;20211;-83
2021/11/23 11:34:29;;;;;;;6.70;5.65;;;3.60;94.90;;;;;;5130661;28;20208;-83
2021/11/23 11:37:05;;;;;;;8.30;6.85;;;3.80;99.90;;;;;;5129976;28;20193;-83
2021/11/23 11:39:58;;;;;;;7.93;5.80;;;3.80;94.30;;;;;;5131017;28;20564;-82
2021/11/23 11:43:01;;;;;;;7.57;6.07;;;3.80;94.60;;;;;;5118769;27;20239;-83
2021/11/23 11:45:41;;;;;;;7.93;6.13;;;4.10;98.80;;;;;;5130379;28;20204;-83
2021/11/23 11:48:47;;;;;;;6.40;5.30;;;3.80;94.40;;;;;;5131837;28;20544;-82
2021/11/23 11:51:27;;;;;;;6.88;5.60;;;3.80;95.60;;;;;;5046937;28;20205;-83
2021/11/23 11:53:56;;;;;;;9.65;8.65;;;3.80;97.70;;;;;;5106043;28;20635;-83
2021/11/23 11:56:50;;;;;;;8.23;6.55;;;3.60;95.60;;;;;;5128640;27;20228;-83
2021/11/23 11:59:26;;;;;;;7.82;7.03;;;3.60;95.80;;;;;;5137376;27;20200;-83
2021/11/23 12:01:56;;;;;;;6.20;5.60;;;3.70;97.90;;;;;;5136885;27;20227;-83
2021/11/23 12:04:26;;;;;;;9.05;7.30;;;3.70;98.00;;;;;;5137742;27;20222;-83
2021/11/23 12:07:16;;;;;;;8.50;7.47;;;3.80;95.50;;;;;;5117262;28;20219;-83
2021/11/23 12:09:46;;;;;;;7.40;6.53;;;3.80;98.20;;;;;;5131288;27;20191;-83
2021/11/23 12:12:42;;;;;;;9.82;7.05;;;3.70;95.70;;;;;;5138074;27;20211;-84
2021/11/23 12:15:18;;;;;;;10.75;6.78;;;3.80;98.30;;;;;;5136684;27;20184;-83
2021/11/23 12:18:01;;;;;;;16.17;7.55;;;3.80;97.50;;;;;;5137624;27;20204;-83
2021/11/23 12:20:38;;;;;;;9.90;7.03;;;3.70;97.30;;;;;;5137564;27;20894;-83
2021/11/23 12:23:22;;;;;;;9.07;6.40;;;3.60;97.60;;;;;;5135955;27;20216;-82
2021/11/23 12:25:54;;;;;;;6.47;5.75;;;3.60;95.40;;;;;;5138002;27;20207;-83
2021/11/23 12:28:22;;;;;;;8.20;6.28;;;3.70;96.50;;;;;;5137625;27;20568;-83
2021/11/23 12:30:49;;;;;;;7.03;5.53;;;;;;;;;;5136975;27;20973;-83
2021/11/23 12:33:18;;;;;;;6.05;5.05;;;;;;;;;;5137058;27;20280;-82
2021/11/23 12:35:46;;;;;;;8.57;6.35;;;;;;;;;;5137643;27;20194;-83
2021/11/23 12:38:27;;;;;;;8.63;5.45;;;3.70;96.80;;;;;;5137350;27;20218;-83
2021/11/23 12:40:56;;;;;;;6.78;5.80;;;3.70;96.30;;;;;;5136872;27;20195;-83
2021/11/23 12:43:23;;;;;;;4.53;4.13;;;;;;;;;;5137415;27;20717;-83
2021/11/23 12:45:50;;;;;;;5.50;4.93;;;;;;;;;;5137237;27;20654;-84
2021/11/23 12:48:32;;;;;;;7.07;5.35;;;3.90;97.30;;;;;;5134798;27;20286;-83
2021/11/23 12:50:59;;;;;;;5.68;5.10;;;;;;;;;;5132410;27;20249;-83
2021/11/23 12:53:27;;;;;;;4.72;4.30;;;;;;;;;;5136128;27;20196;-83
2021/11/23 12:55:57;;;;;;;5.40;3.58;;;4.20;94.20;;;;;;5134436;27;20222;-82
2021/11/23 12:58:35;;;;;;;3.70;3.03;;;4.40;92.90;;;;;;5132915;27;20227;-82
2021/11/23 13:01:03;;;;;;;3.08;2.78;;;;;;;;;;5133642;27;20197;-83
2021/11/23 13:03:31;;;;;;;4.10;3.70;;;4.30;92.30;;;;;;5134831;27;20245;-82
2021/11/23 13:06:08;;;;;;;3.90;3.15;;;;;;;;;;5133270;27;20264;-82
2021/11/23 13:08:36;;;;;;;3.78;3.42;;;;;;;;;;5133615;27;20222;-83
2021/11/23 13:11:12;;;;;;;4.20;3.10;;;4.40;92.40;;;;;;5133925;27;20245;-82
2021/11/23 13:13:41;;;;;;;5.07;3.97;;;;;;;;;;5134971;27;20207;-83
2021/11/23 13:16:10;;;;;;;4.10;3.63;;;;;;;;;;5115384;27;20235;-82
2021/11/23 13:18:42;;;;;;;3.22;2.92;;;;;;;;;;5123341;27;20204;-83
2021/11/23 13:21:10;;;;;;;3.83;3.53;;;;;;;;;;5132052;27;20287;-81
2021/11/23 13:23:38;;;;;;;4.95;4.00;;;4.30;92.50;;;;;;5131277;27;20208;-82
2021/11/23 13:26:09;;;;;;;5.90;5.18;;;4.30;93.00;;;;;;5134180;27;20229;-83
2021/11/23 13:28:37;;;;;;;8.23;5.35;;;4.30;93.10;;;;;;5135440;27;20232;-83
2021/11/23 13:31:06;;;;;;;4.63;4.03;;;4.30;93.60;;;;;;5133812;27;20742;-83
2021/11/23 13:33:38;;;;;;;5.07;4.20;;;4.30;93.70;;;;;;5134819;27;20200;-83
2021/11/23 13:36:10;;;;;;;5.55;5.00;;;4.30;93.50;;;;;;5134359;27;20594;-83
2021/11/23 13:38:41;;;;;;;8.30;4.40;;;4.10;93.30;;;;;;5134387;27;20200;-82
2021/11/23 13:41:12;;;;;;;5.00;4.45;;;4.30;93.20;;;;;;5133742;27;20215;-83
2021/11/23 13:43:41;;;;;;;4.85;4.13;;;4.40;93.10;;;;;;5133763;27;20904;-83
2021/11/23 13:46:09;;;;;;;9.07;4.88;;;;;;;;;;5134122;27;20196;-82
2021/11/23 13:48:37;;;;;;;5.72;5.13;;;;;;;;;;5132233;27;20200;-81
2021/11/23 13:51:09;;;;;;;7.30;5.30;;;4.30;93.20;;;;;;5133231;27;20648;-82
2021/11/23 13:54:00;;;;;;;5.35;4.85;;;4.20;91.50;;;;;;5129150;27;20250;-84
2021/11/23 13:56:29;;;;;;;4.70;4.25;;;4.60;94.20;;;;;;5134607;27;20196;-83
2021/11/23 13:58:59;;;;;;;9.50;5.47;;;4.20;94.40;;;;;;5134571;27;20216;-83
2021/11/23 14:01:35;;;;;;;6.15;5.38;;;;;;;;;;5132423;27;20199;-83
2021/11/23 14:04:06;;;;;;;6.38;4.43;;;;;;;;;;5133862;27;20236;-83
2021/11/23 14:06:35;;;;;;;6.63;5.63;;;;;;;;;;5135421;27;20194;-84
2021/11/23 14:09:05;;;;;;;6.63;5.63;;;;;;;;;;5135802;27;20696;-83